createdAt,value
2023-05-18T00:00:23.540Z,101072.44
2023-05-18T00:05:34.342Z,101076.47
2023-05-18T00:10:37.699Z,101076.06
2023-05-18T00:15:40.575Z,101074.75
2023-05-18T00:20:44.817Z,101089.34
2023-05-18T00:25:47.606Z,101085.97
2023-05-18T00:30:50.484Z,101088.19
2023-05-18T00:35:56.681Z,101097.81
2023-05-18T00:40:59.510Z,101094.69
2023-05-18T00:46:02.454Z,101092.28
2023-05-18T00:51:07.211Z,101091.53
2023-05-18T00:56:12.173Z,101108.97
2023-05-18T01:01:17.725Z,101108.31
2023-05-18T01:06:21.995Z,101110.56
2023-05-18T01:11:32.797Z,101118.81
2023-05-18T01:16:44.729Z,101118.47
2023-05-18T01:21:58.850Z,101125.16
2023-05-18T01:27:07.867Z,101127.13
2023-05-18T01:32:11.220Z,101131.94
2023-05-18T01:37:14.269Z,101134.88
2023-05-18T01:42:26.059Z,101138.84
2023-05-18T01:47:31.580Z,101135.38
2023-05-18T01:52:39.007Z,101141.75
2023-05-18T01:57:46.231Z,101132.97
2023-05-18T02:02:51.081Z,101136.75
2023-05-18T02:07:54.563Z,101140.75
2023-05-18T02:12:58.772Z,101140.53
2023-05-18T02:18:03.086Z,101146.16
2023-05-18T02:23:07.782Z,101142.69
2023-05-18T02:28:11.978Z,101142.69
2023-05-18T02:33:14.728Z,101134.34
2023-05-18T02:38:17.514Z,101135.44
2023-05-18T02:43:21.849Z,101138.22
2023-05-18T02:48:24.803Z,101143.75
2023-05-18T02:53:27.639Z,101148.41
2023-05-18T02:58:38.150Z,101156.06
2023-05-18T03:03:47.939Z,101160.56
2023-05-18T03:08:54.255Z,101164.47
2023-05-18T03:14:01.413Z,101152.00
2023-05-18T03:19:04.375Z,101165.94
2023-05-18T03:24:14.905Z,101161.50
2023-05-18T03:29:22.188Z,101163.63
2023-05-18T03:34:25.861Z,101164.78
2023-05-18T03:39:28.719Z,101166.72
2023-05-18T03:44:32.958Z,101163.34
2023-05-18T03:49:36.254Z,101167.88
2023-05-18T03:54:42.655Z,101169.72
2023-05-18T03:59:47.089Z,101176.09
2023-05-18T04:04:49.969Z,101178.06
2023-05-18T04:09:54.885Z,101183.47
2023-05-18T04:14:59.198Z,101184.31
2023-05-18T04:20:06.392Z,101192.31
2023-05-18T04:25:10.866Z,101196.00
2023-05-18T04:30:18.831Z,101207.78
2023-05-18T04:35:21.901Z,101205.09
2023-05-18T04:40:25.321Z,101204.22
2023-05-18T04:45:30.194Z,101207.78
2023-05-18T04:50:33.613Z,101207.78
2023-05-18T04:55:36.734Z,101221.19
2023-05-18T05:00:44.709Z,101217.63
2023-05-18T05:05:47.678Z,101219.34
2023-05-18T05:10:50.601Z,101221.09
2023-05-18T05:15:55.264Z,101220.13
2023-05-18T05:20:59.305Z,101221.88
2023-05-18T05:26:02.516Z,101222.63
2023-05-18T05:31:07.187Z,101224.47
2023-05-18T05:36:10.874Z,101223.59
2023-05-18T05:41:13.826Z,101225.22
2023-05-18T05:46:18.563Z,101229.59
2023-05-18T05:51:21.672Z,101225.13
2023-05-18T05:56:24.591Z,101229.59
2023-05-18T06:01:29.080Z,101224.19
2023-05-18T06:06:32.528Z,101233.81
2023-05-18T06:11:35.948Z,101230.06
2023-05-18T06:16:40.317Z,101222.72
2023-05-18T06:21:43.459Z,101230.72
2023-05-18T06:26:46.696Z,101232.38
2023-05-18T06:32:06.855Z,101222.31
2023-05-18T06:37:12.123Z,101230.53
2023-05-18T06:42:14.933Z,101234.97
2023-05-18T06:47:28.586Z,101237.47
2023-05-18T06:52:32.510Z,101240.06
2023-05-18T06:57:35.672Z,101245.38
2023-05-18T07:02:43.342Z,101247.31
2023-05-18T07:07:47.566Z,101241.34
2023-05-18T07:12:51.064Z,101243.69
2023-05-18T07:17:55.540Z,101242.19
2023-05-18T07:28:01.778Z,101253.88
2023-05-18T07:33:06.196Z,101246.34
2023-05-18T07:38:09.067Z,101250.91
2023-05-18T07:43:11.956Z,101244.31
2023-05-18T07:48:16.316Z,101240.19
2023-05-18T07:53:19.087Z,101245.19
2023-05-18T07:58:22.283Z,101254.06
2023-05-18T08:03:26.789Z,101245.78
2023-05-18T08:08:29.895Z,101253.69
2023-05-18T08:13:33.992Z,101248.16
2023-05-18T08:18:38.634Z,101259.66
2023-05-18T08:23:41.467Z,101255.59
2023-05-18T08:28:45.314Z,101248.22
2023-05-18T08:33:49.911Z,101239.25
2023-05-18T08:38:53.765Z,101250.91
2023-05-18T08:44:02.477Z,101248.13
2023-05-18T08:49:07.497Z,101247.06
2023-05-18T08:54:12.270Z,101243.28
2023-05-18T08:59:19.688Z,101236.91
2023-05-18T09:04:25.107Z,101245.59
2023-05-18T09:09:28.145Z,101240.00
2023-05-18T09:14:33.581Z,101240.88
2023-05-18T09:19:37.939Z,101228.97
2023-05-18T09:24:40.884Z,101219.88
2023-05-18T09:29:54.033Z,101224.94
2023-05-18T09:35:06.128Z,101214.97
2023-05-18T09:40:10.205Z,101227.53
2023-05-18T09:45:19.103Z,101231.84
2023-05-18T09:50:25.658Z,101215.63
2023-05-18T09:55:28.765Z,101222.00
2023-05-18T10:00:32.815Z,101230.13
2023-05-18T10:05:43.576Z,101225.59
2023-05-18T10:10:48.460Z,101220.84
2023-05-18T10:15:54.215Z,101212.84
2023-05-18T10:21:02.321Z,101211.78
2023-05-18T10:26:07.468Z,101193.69
2023-05-18T10:31:10.373Z,101189.16
2023-05-18T10:36:14.905Z,101190.59
2023-05-18T10:41:22.522Z,101176.88
2023-05-18T10:46:27.268Z,101182.19
2023-05-18T10:51:41.195Z,101185.75
2023-05-18T10:56:50.381Z,101184.00
2023-05-18T11:01:55.381Z,101177.53
2023-05-18T11:07:03.095Z,101172.78
2023-05-18T11:12:13.001Z,101180.03
2023-05-18T11:17:20.619Z,101159.25
2023-05-18T11:22:24.903Z,101149.41
2023-05-18T11:27:30.067Z,101146.31
2023-05-18T11:32:34.124Z,101149.75
2023-05-18T11:37:51.277Z,101150.84
2023-05-18T11:42:59.490Z,101151.16
2023-05-18T11:48:03.610Z,101135.72
2023-05-18T11:53:08.477Z,101147.31
2023-05-18T11:58:11.401Z,101148.69
2023-05-18T12:03:14.795Z,101145.13
2023-05-18T12:08:20.066Z,101150.72
2023-05-18T12:13:24.705Z,101141.09
2023-05-18T12:18:29.574Z,101147.47
2023-05-18T12:23:39.881Z,101138.25
2023-05-18T12:28:42.731Z,101136.97
2023-05-18T12:33:45.629Z,101135.06
2023-05-18T12:38:53.292Z,101123.06
2023-05-18T12:43:58.422Z,101112.84
2023-05-18T12:49:04.347Z,101137.03
2023-05-18T12:54:09.459Z,101128.13
2023-05-18T12:59:12.282Z,101119.69
2023-05-18T13:04:15.501Z,101108.22
2023-05-18T13:09:20.037Z,101105.16
2023-05-18T13:14:23.802Z,101105.59
2023-05-18T13:19:27.376Z,101117.63
2023-05-18T13:24:32.039Z,101112.22
2023-05-18T13:29:34.964Z,101099.75
2023-05-18T13:34:37.782Z,101107.97
2023-05-18T13:39:42.369Z,101096.94
2023-05-18T13:44:45.166Z,101105.28
2023-05-18T13:49:48.007Z,101092.06
2023-05-18T13:54:52.321Z,101091.09
2023-05-18T13:59:55.105Z,101095.06
2023-05-18T14:04:58.587Z,101093.16
2023-05-18T14:10:03.141Z,101078.41
2023-05-18T14:15:07.189Z,101085.97
2023-05-18T14:20:11.106Z,101086.22
2023-05-18T14:25:15.257Z,101082.66
2023-05-18T14:30:18.462Z,101085.78
2023-05-18T14:35:21.506Z,101085.03
2023-05-18T14:40:25.879Z,101072.78
2023-05-18T14:45:28.711Z,101070.59
2023-05-18T14:50:32.151Z,101068.88
2023-05-18T14:55:37.233Z,101074.72
2023-05-18T15:00:40.162Z,101082.31
2023-05-18T15:05:44.372Z,101081.34
2023-05-18T15:10:50.005Z,101072.78
2023-05-18T15:15:53.028Z,101071.25
2023-05-18T15:20:55.988Z,101067.69
2023-05-18T15:26:00.516Z,101071.16
2023-05-18T15:31:04.608Z,101072.91
2023-05-18T15:36:07.934Z,101058.06
2023-05-18T15:41:12.151Z,101061.06
2023-05-18T15:46:15.141Z,101060.47
2023-05-18T15:51:17.943Z,101060.13
2023-05-18T15:56:22.287Z,101058.09
2023-05-18T16:01:25.245Z,101047.00
2023-05-18T16:06:28.322Z,101046.78
2023-05-18T16:11:35.559Z,101038.78
2023-05-18T16:16:38.655Z,101032.59
2023-05-18T16:21:41.587Z,101024.72
2023-05-18T16:26:45.840Z,101025.31
2023-05-18T16:31:48.738Z,101037.34
2023-05-18T16:36:51.766Z,101041.44
2023-05-18T16:41:55.966Z,101039.28
2023-05-18T16:46:59.685Z,101037.19
2023-05-18T16:52:03.603Z,101036.09
2023-05-18T16:57:07.946Z,101045.72
2023-05-18T17:02:13.324Z,101036.91
2023-05-18T17:07:16.836Z,101033.47
2023-05-18T17:12:23.131Z,101034.06
2023-05-18T17:17:26.105Z,101031.88
2023-05-18T17:22:29.090Z,101037.97
2023-05-18T17:27:33.742Z,101041.19
2023-05-18T17:32:38.759Z,101041.94
2023-05-18T17:37:42.044Z,101040.72
2023-05-18T17:42:46.596Z,101039.75
2023-05-18T17:47:49.597Z,101032.91
2023-05-18T17:52:52.665Z,101040.50
2023-05-18T17:57:59.636Z,101040.22
2023-05-18T18:03:02.679Z,101040.00
2023-05-18T18:08:05.685Z,101045.81
2023-05-18T18:13:09.937Z,101045.06
2023-05-18T18:18:13.142Z,101047.56
2023-05-18T18:23:16.610Z,101049.94
2023-05-18T18:28:21.041Z,101044.25
2023-05-18T18:33:25.716Z,101056.38
2023-05-18T18:38:29.077Z,101054.28
2023-05-18T18:43:35.298Z,101055.53
2023-05-18T18:48:38.157Z,101063.94
2023-05-18T18:53:41.089Z,101061.00
2023-05-18T18:58:45.610Z,101064.41
2023-05-18T19:03:48.413Z,101071.09
2023-05-18T19:08:52.150Z,101071.84
2023-05-18T19:13:56.538Z,101072.38
2023-05-18T19:18:59.464Z,101076.50
2023-05-18T19:24:02.326Z,101084.97
2023-05-18T19:29:06.519Z,101081.41
2023-05-18T19:34:09.388Z,101089.16
2023-05-18T19:39:12.257Z,101091.66
2023-05-18T19:44:16.809Z,101097.44
2023-05-18T19:49:19.704Z,101102.34
2023-05-18T19:54:22.624Z,101087.44
2023-05-18T19:59:26.876Z,101087.81
2023-05-18T20:04:30.076Z,101092.63
2023-05-18T20:09:32.954Z,101094.59
2023-05-18T20:14:38.890Z,101090.16
2023-05-18T20:19:49.912Z,101094.50
2023-05-18T20:24:53.587Z,101090.28
2023-05-18T20:29:57.787Z,101103.25
2023-05-18T20:35:00.674Z,101095.38
2023-05-18T20:40:08.911Z,101104.75
2023-05-18T20:45:13.755Z,101098.59
2023-05-18T20:50:16.643Z,101094.88
2023-05-18T20:55:20.716Z,101100.06
2023-05-18T21:00:25.139Z,101096.00
2023-05-18T21:05:27.984Z,101086.38
2023-05-18T21:10:32.026Z,101082.69
2023-05-18T21:15:37.407Z,101081.44
2023-05-18T21:20:40.408Z,101090.34
2023-05-18T21:25:43.252Z,101079.97
2023-05-18T21:30:48.275Z,101086.97
2023-05-18T21:35:51.345Z,101080.69
2023-05-18T21:40:56.027Z,101081.19
2023-05-18T21:46:00.384Z,101083.06
2023-05-18T21:51:04.174Z,101083.41
2023-05-18T21:56:07.696Z,101087.84
2023-05-18T22:01:11.895Z,101082.31
2023-05-18T22:06:14.860Z,101082.31
2023-05-18T22:11:17.690Z,101079.34
2023-05-18T22:16:21.943Z,101076.53
2023-05-18T22:21:24.754Z,101074.66
2023-05-18T22:26:27.667Z,101071.94
2023-05-18T22:31:32.632Z,101071.56
2023-05-18T22:36:36.232Z,101070.69
2023-05-18T22:41:39.093Z,101072.81
2023-05-18T22:46:43.454Z,101069.59
2023-05-18T22:51:47.530Z,101066.38
2023-05-18T22:56:50.464Z,101073.16
2023-05-18T23:01:54.870Z,101074.38
2023-05-18T23:06:57.972Z,101074.72
2023-05-18T23:12:01.251Z,101067.81
2023-05-18T23:17:06.487Z,101073.41
2023-05-18T23:22:09.326Z,101065.53
2023-05-18T23:27:12.197Z,101078.44
2023-05-18T23:32:16.407Z,101066.34
2023-05-18T23:37:20.933Z,101064.09
2023-05-18T23:42:25.430Z,101057.53
2023-05-18T23:47:30.122Z,101052.34
2023-05-18T23:52:34.121Z,101052.91
2023-05-18T23:57:37.452Z,101052.31
